Flight Track Log - Related Links

Times and Time Zones

All times are in EDT time to prevent confusion due to time zone crossing. See the TAM3023 flight status page for this flight to view local times or setup timezone preferences in your user account.

Time Position Orientation Groundspeed Altitude Reporting Facility
EDT Latitude Longitude Course Direction KTS MPH feet Rate Location/Type
Wed 07:23:39 AM -15.9250 -47.8600 181° South 220 253 6,900  Level FlightAware ADS-B
Wed 07:24:07 AM -15.9550 -47.8590 178° South 255 293 7,600 1,750 Climbing FlightAware ADS-B
Wed 07:24:27 AM -15.9800 -47.8560 173° South 281 323 8,300 2,400 Climbing FlightAware ADS-B
Wed 07:24:47 AM -16.0080 -47.8530 174° South 297 342 9,200 2,618 Climbing FlightAware ADS-B
Wed 07:25:22 AM -16.0570 -47.8460 172° South 319 367 10,700 2,160 Climbing FlightAware ADS-B
Wed 07:25:37 AM -16.0790 -47.8400 165° South 341 392 11,000 1,294 Climbing FlightAware ADS-B
Wed 07:26:13 AM -16.1330 -47.8120 154° Southeast 382 440 11,800 1,371 Climbing FlightAware ADS-B
Wed 07:26:47 AM -16.1910 -47.7820 154° Southeast 415 478 12,600 2,000 Climbing FlightAware ADS-B
Wed 07:27:22 AM -16.2530 -47.7510 154° Southeast 422 486 14,100 2,400 Climbing FlightAware ADS-B
Wed 07:28:02 AM -16.3230 -47.7150 154° Southeast 432 497 15,600 1,971 Climbing FlightAware ADS-B
Wed 07:28:32 AM -16.3750 -47.6880 154° Southeast 439 505 16,400 1,185 Climbing FlightAware ADS-B
Wed 07:29:23 AM -16.4610 -47.6420 153° Southeast 439 505 17,200 1,500 Climbing FlightAware ADS-B
Wed 07:30:04 AM -16.5430 -47.6010 154° Southeast 457 526 18,700 1,169 Climbing FlightAware ADS-B
Wed 07:30:40 AM -16.6000 -47.5700 152° Southeast 457 526 18,700  Level FlightAware ADS-B
Wed 07:31:16 AM -16.6580 -47.5390 153° Southeast 457 526 18,700  Level FlightAware ADS-B
Wed 07:31:52 AM -16.7160 -47.5090 154° Southeast 457 526 18,700  Level FlightAware ADS-B
Wed 07:32:26 AM -16.7700 -47.4800 153° Southeast 457 526 18,700  Level FlightAware ADS-B
Wed 07:33:02 AM -16.8280 -47.4490 153° Southeast 457 526 18,700 2,081 Level FlightAware ADS-B
Wed 07:35:00 AM -16.9902 -47.3396 147° Southeast  Level Estimated
Wed 07:36:00 AM -17.0689 -47.2864 147° Southeast  Level Estimated
Wed 07:36:08 AM -17.2640 -47.1700 147° Southeast 495 570 26,400  Level FlightAware ADS-B
Wed 07:36:46 AM -17.3280 -47.1300 149° Southeast 495 570 26,400 1,075 Level FlightAware ADS-B
Wed 07:37:15 AM -17.3900 -47.0920 150° Southeast 495 570 27,600 1,014 Climbing FlightAware ADS-B
Wed 07:37:57 AM -17.4610 -47.0480 149° Southeast 495 570 27,600  Level FlightAware ADS-B
Wed 07:38:33 AM -17.5210 -47.0100 149° Southeast 495 570 27,600 2,328 Level FlightAware ADS-B
Wed 07:39:04 AM -17.6100 -46.9560 150° Southeast 490 564 30,200 2,954 Climbing FlightAware ADS-B
Wed 07:39:38 AM -17.6780 -46.9130 149° Southeast 493 567 30,800 1,059 Climbing FlightAware ADS-B
Wed 07:40:12 AM -17.7440 -46.8720 149° Southeast 494 568 31,400 769 Climbing FlightAware ADS-B
Wed 07:40:56 AM -17.8220 -46.8230 149° Southeast 495 570 31,800 1,403 Climbing FlightAware ADS-B
Wed 07:41:29 AM -17.8940 -46.7790 150° Southeast 490 564 33,200 1,853 Climbing FlightAware ADS-B
Wed 07:42:04 AM -17.9570 -46.7390 149° Southeast 491 565 33,900 1,200 Climbing FlightAware ADS-B
Wed 07:42:39 AM -18.0340 -46.6910 149° Southeast 491 565 34,600 943 Climbing FlightAware ADS-B
Wed 07:43:14 AM -18.1000 -46.6490 149° Southeast 494 568 35,000 343 Climbing FlightAware ADS-B
Wed 07:43:49 AM -18.1700 -46.6050 149° Southeast 493 567 35,000  Level FlightAware ADS-B
Wed 07:44:29 AM -18.2490 -46.5560 150° Southeast 495 570 35,000  Level FlightAware ADS-B
Wed 07:45:09 AM -18.3280 -46.5060 149° Southeast 496 571 35,000  Level FlightAware ADS-B
Wed 07:45:39 AM -18.3880 -46.4690 150° Southeast 497 572 35,000  Level FlightAware ADS-B
Wed 07:46:24 AM -18.4720 -46.4160 149° Southeast 497 572 35,000  Level FlightAware ADS-B
Wed 07:46:59 AM -18.5430 -46.3710 149° Southeast 497 572 35,000  Level FlightAware ADS-B
Wed 07:47:34 AM -18.6150 -46.3260 149° Southeast 497 572 35,000  Level FlightAware ADS-B
Wed 07:48:09 AM -18.6840 -46.2830 149° Southeast 497 572 35,000  Level FlightAware ADS-B
Wed 07:48:44 AM -18.7530 -46.2390 149° Southeast 497 572 35,000  Level FlightAware ADS-B
Wed 07:49:20 AM -18.8210 -46.1960 149° Southeast 498 573 35,000  Level FlightAware ADS-B
Wed 07:50:04 AM -18.9090 -46.1410 149° Southeast 498 573 35,000  Level FlightAware ADS-B
Wed 07:50:35 AM -18.9630 -46.1070 149° Southeast 498 573 35,000  Level FlightAware ADS-B
Wed 07:51:09 AM -19.0410 -46.0580 149° Southeast 497 572 35,000  Level FlightAware ADS-B
Wed 07:51:44 AM -19.1100 -46.0140 149° Southeast 496 571 35,000  Level FlightAware ADS-B
Wed 07:52:19 AM -19.1780 -45.9700 149° Southeast 493 567 35,000  Level FlightAware ADS-B
Wed 07:52:54 AM -19.2480 -45.9270 150° Southeast 490 564 35,000  Level FlightAware ADS-B
Wed 07:53:34 AM -19.3260 -45.8800 150° Southeast 489 563 35,000  Level FlightAware ADS-B
Wed 07:54:09 AM -19.3940 -45.8400 151° Southeast 488 562 35,000  Level FlightAware ADS-B
Wed 07:54:39 AM -19.4540 -45.8030 150° Southeast 487 560 35,000  Level FlightAware ADS-B
Wed 07:55:14 AM -19.5220 -45.7630 151° Southeast 485 558 35,000  Level FlightAware ADS-B
Wed 07:55:54 AM -19.6000 -45.7130 149° Southeast 489 563 35,000  Level FlightAware ADS-B
Wed 07:56:29 AM -19.6660 -45.6700 148° Southeast 487 560 35,000  Level FlightAware ADS-B
Wed 07:56:59 AM -19.7260 -45.6320 149° Southeast 486 559 35,000  Level FlightAware ADS-B
Wed 07:57:34 AM -19.7920 -45.5890 148° Southeast 486 559 35,000  Level FlightAware ADS-B
Wed 07:58:14 AM -19.8710 -45.5390 149° Southeast 487 560 35,000  Level FlightAware ADS-B
Wed 07:58:44 AM -19.9270 -45.5020 148° Southeast 485 558 35,000  Level FlightAware ADS-B
Wed 07:59:19 AM -19.9950 -45.4590 149° Southeast 483 556 35,000  Level FlightAware ADS-B
Wed 07:59:59 AM -20.0700 -45.4100 148° Southeast 481 554 35,000  Level FlightAware ADS-B
Wed 08:00:29 AM -20.1280 -45.3720 148° Southeast 480 552 35,000  Level FlightAware ADS-B
Wed 08:01:04 AM -20.1930 -45.3300 149° Southeast 482 555 35,000  Level FlightAware ADS-B
Wed 08:01:40 AM -20.2610 -45.2860 149° Southeast 481 554 35,000  Level FlightAware ADS-B
Wed 08:02:14 AM -20.3270 -45.2430 149° Southeast 477 549 35,000  Level FlightAware ADS-B
Wed 08:02:52 AM -20.3950 -45.1990 149° Southeast 482 555 35,000  Level FlightAware ADS-B
Wed 08:03:30 AM -20.4720 -45.1490 149° Southeast 483 556 35,000  Level FlightAware ADS-B
Wed 08:04:00 AM -20.5270 -45.1130 148° Southeast 487 560 35,000  Level FlightAware ADS-B
Wed 08:04:35 AM -20.5960 -45.0680 149° Southeast 485 558 35,000  Level FlightAware ADS-B
Wed 08:05:15 AM -20.6690 -45.0210 149° Southeast 487 560 35,000  Level FlightAware ADS-B
Wed 08:05:45 AM -20.7310 -44.9800 148° Southeast 488 562 35,000  Level FlightAware ADS-B
Wed 08:06:25 AM -20.8080 -44.9300 149° Southeast 480 552 35,000  Level FlightAware ADS-B
Wed 08:06:55 AM -20.8640 -44.8930 148° Southeast 477 549 35,000  Level FlightAware ADS-B
Wed 08:07:30 AM -20.9300 -44.8500 149° Southeast 474 545 35,000 -80 Level FlightAware ADS-B
Wed 08:08:10 AM -21.0030 -44.8010 148° Southeast 474 545 34,900  Descending FlightAware ADS-B
Wed 08:08:40 AM -21.0560 -44.7660 148° Southeast 475 547 35,000 92 Climbing FlightAware ADS-B
Wed 08:09:15 AM -21.1260 -44.7200 148° Southeast 476 548 35,000  Level FlightAware ADS-B
Wed 08:09:55 AM -21.2020 -44.6710 149° Southeast 477 549 35,000  Level FlightAware ADS-B
Wed 08:10:25 AM -21.2580 -44.6340 148° Southeast 477 549 35,000  Level FlightAware ADS-B
Wed 08:11:00 AM -21.3240 -44.5900 148° Southeast 478 550 35,000  Level FlightAware ADS-B
Wed 08:11:47 AM -21.4140 -44.5310 149° Southeast 479 551 35,000  Level FlightAware ADS-B
Wed 08:12:17 AM -21.4700 -44.4930 148° Southeast 481 554 35,000 -90 Level FlightAware ADS-B
Wed 08:12:54 AM -21.5370 -44.4490 149° Southeast 484 557 34,900 -455 Descending FlightAware ADS-B
Wed 08:13:23 AM -21.5950 -44.4110 149° Southeast 482 555 34,500 -938 Descending FlightAware ADS-B
Wed 08:13:58 AM -21.6600 -44.3680 148° Southeast 490 564 33,900 -1,304 Descending FlightAware ADS-B
Wed 08:14:32 AM -21.7300 -44.3220 149° Southeast 490 564 33,000 -1,826 Descending FlightAware ADS-B
Wed 08:15:07 AM -21.7950 -44.2780 148° Southeast 487 560 31,800 -2,113 Descending FlightAware ADS-B
Wed 08:15:43 AM -21.8600 -44.2350 148° Southeast 480 552 30,500 -1,938 Descending FlightAware ADS-B
Wed 08:16:12 AM -21.9080 -44.2030 148° Southeast 481 554 29,700 -1,379 Descending FlightAware ADS-B
Wed 08:17:10 AM -22.0150 -44.1300 148° Southeast 473 544 28,500 -2,157 Descending FlightAware ADS-B
Wed 08:17:41 AM -22.0660 -44.0980 150° Southeast 458 527 26,500 -3,304 Descending FlightAware ADS-B
Wed 08:18:19 AM -22.1550 -44.0380 148° Southeast 541 623 24,700 -2,530 Descending FlightAware ADS-B
Wed 08:19:04 AM -22.2390 -43.9830 149° Southeast 455 524 23,000 -2,325 Descending FlightAware ADS-B
Wed 08:19:39 AM -22.3010 -43.9420 149° Southeast 446 513 21,600 -2,229 Descending FlightAware ADS-B
Wed 08:20:14 AM -22.3610 -43.9020 148° Southeast 439 505 20,400 -2,113 Descending FlightAware ADS-B
Wed 08:20:50 AM -22.4230 -43.8610 149° Southeast 436 502 19,100 -2,197 Descending FlightAware ADS-B
Wed 08:21:25 AM -22.4840 -43.8260 152° Southeast 447 514 17,800 -2,400 Descending FlightAware ADS-B
Wed 08:22:00 AM -22.5540 -43.7950 158° South 462 532 16,300 -2,348 Descending FlightAware ADS-B
Wed 08:22:34 AM -22.6210 -43.7640 157° South 436 502 15,100 -1,739 Descending FlightAware ADS-B
Wed 08:23:09 AM -22.6840 -43.7350 157° South 431 496 14,300 -1,183 Descending FlightAware ADS-B
Wed 08:23:45 AM -22.7470 -43.7050 156° South 392 451 13,700 -941 Descending FlightAware ADS-B
Wed 08:24:00 AM -22.7680 -43.6880 143° Southeast 369 425 13,500 -857 Descending FlightAware ADS-B
Wed 08:24:34 AM -22.8060 -43.6450 134° Southeast 325 374 13,000 -1,130 Descending FlightAware ADS-B
Wed 08:25:09 AM -22.8400 -43.6040 132° Southeast 299 344 12,200 -1,629 Descending FlightAware ADS-B
Wed 08:25:44 AM -22.8730 -43.5680 135° Southeast 295 339 11,100 -1,629 Descending FlightAware ADS-B
Wed 08:26:19 AM -22.9050 -43.5310 133° Southeast 275 316 10,300 -1,309 Descending FlightAware ADS-B
Wed 08:26:39 AM -22.9210 -43.5110 131° Southeast 254 292 9,900 -1,500 Descending FlightAware ADS-B
Wed 08:26:59 AM -22.9370 -43.4930 134° Southeast 238 274 9,300 -1,935 Descending FlightAware ADS-B
Wed 08:27:10 AM -22.9410 -43.4820 112° Southeast 235 270 8,900 -2,400 Descending FlightAware ADS-B
Wed 08:27:14 AM -22.9410 -43.4780 90° East 234 269 8,700 -2,483 Descending FlightAware ADS-B
Wed 08:27:39 AM -22.9310 -43.4510 68° East 223 257 7,700 -2,229 Descending FlightAware ADS-B
Wed 08:27:49 AM -22.9260 -43.4420 59° Northeast 217 250 7,400 -2,057 Descending FlightAware ADS-B
Wed 08:28:14 AM -22.9130 -43.4180 60° Northeast 212 244 6,500 -2,087 Descending FlightAware ADS-B
Wed 08:28:35 AM -22.9040 -43.3990 63° Northeast 208 239 5,800 -2,000 Descending FlightAware ADS-B
Wed 08:28:56 AM -22.8960 -43.3820 63° Northeast 200 230 5,100 -1,875 Descending FlightAware ADS-B
Wed 08:29:23 AM -22.8890 -43.3680 62° Northeast 197 227 4,300 -1,953 Descending FlightAware ADS-B
Wed 08:29:39 AM -22.8830 -43.3550 63° Northeast 196 226 3,700 -1,941 Descending FlightAware ADS-B
Wed 08:29:57 AM -22.8780 -43.3400 70° East 185 213 3,200 -1,200 Descending FlightAware ADS-B
Wed 08:30:19 AM -22.8720 -43.3210 71° East 169 194 2,900 -800 Descending FlightAware ADS-B
Wed 08:30:27 AM -22.8710 -43.3180 70° East 169 194 2,800 -1,313 Descending FlightAware ADS-B
Wed 08:30:51 AM -22.8600 -43.2830 71° East 172 198 2,200 -1,091 Descending FlightAware ADS-B
Wed 08:31:11 AM -22.8550 -43.2680 70° East 161 185 2,000 -585 Descending FlightAware ADS-B
Wed 08:31:32 AM -22.8540 -43.2610 81° East 157 181 1,800 -652 Descending FlightAware ADS-B
Wed 08:31:57 AM -22.8560 -43.2430 97° East 150 173 1,500 -878 Descending FlightAware ADS-B
Wed 08:32:13 AM -22.8570 -43.2310 95° East 140 161 1,200 188 Descending FlightAware ADS-B
Wed 08:32:29 AM -22.8590 -43.2200 101° East 146 168 1,600 1,750 Climbing FlightAware ADS-B
Wed 08:32:37 AM -22.8620 -43.2150 123° Southeast 150 173 1,900 2,063 Climbing FlightAware ADS-B
Wed 08:33:01 AM -22.8730 -43.1990 127° Southeast 171 197 2,700 1,200 Climbing FlightAware ADS-B
Wed 08:33:17 AM -22.8820 -43.1870 129° Southeast 190 219 2,700  Level FlightAware ADS-B
Wed 08:33:42 AM -22.8930 -43.1650 118° Southeast 180 207 2,700 -122 Level FlightAware ADS-B
Wed 08:34:06 AM -22.8970 -43.1500 106° East 181 208 2,600 -1,024 Descending FlightAware ADS-B
Wed 08:34:23 AM -22.9050 -43.1210 107° East 182 209 2,000 -1,385 Descending FlightAware ADS-B
Wed 08:34:45 AM -22.8970 -43.1050 62° Northeast 181 208 1,700 -1,000 Descending FlightAware ADS-B
Wed 08:34:53 AM -22.8900 -43.1020 22° Northeast 179 206 1,500 -923 Descending FlightAware ADS-B
Wed 08:34:58 AM -22.8880 -43.1020 360° North 177 204 1,500 -214 Level FlightAware ADS-B
Wed 08:35:21 AM -22.8700 -43.1110 335° Northwest 173 199 1,400 -214 Descending FlightAware ADS-B
Wed 08:35:26 AM -22.8690 -43.1140 290° West 169 194 1,400  Level FlightAware ADS-B
Wed 08:35:30 AM -22.8680 -43.1170 290° West 166 191 1,400 -400 Level FlightAware ADS-B
Wed 08:35:41 AM -22.8660 -43.1260 284° West 146 168 1,300 -522 Descending FlightAware ADS-B
Wed 08:35:53 AM -22.8660 -43.1340 270° West 137 158 1,200 -462 Descending FlightAware ADS-B
Wed 08:36:20 AM -22.8660 -43.1420 270° West 135 155 1,000 -923 Descending FlightAware ADS-B
Wed 08:36:45 AM -22.8770 -43.1640 242° Southwest 123 142 400 -1,241 Descending FlightAware ADS-B
Wed 08:36:49 AM -22.8790 -43.1640 180° South 122 140 400 -500 Level FlightAware ADS-B
Wed 08:36:57 AM -22.8820 -43.1650 197° South 120 138 300 -429 Descending FlightAware ADS-B
Wed 08:37:17 AM -22.8870 -43.1640 170° South 118 136 200 -188 Descending FlightAware ADS-B
Wed 08:38:01 AM -22.9040 -43.1630 177° South 118 136 100 -136 Descending FlightAware ADS-B

Login

Don't have an account? Register now (free) for customized features, flight alerts, and more!